sensor_id;sensor_type;location;lat;lon;timestamp;pressure;altitude;pressure_sealevel;temperature;humidity
28008;BME280;15333;50.010;20.020;2023-04-02T00:00:19;97675.88;;;8.30;100.00
28008;BME280;15333;50.010;20.020;2023-04-02T00:06:44;97682.31;;;8.27;100.00
28008;BME280;15333;50.010;20.020;2023-04-02T00:09:45;97677.50;;;8.21;100.00
28008;BME280;15333;50.010;20.020;2023-04-02T00:16:12;97688.38;;;8.30;100.00
28008;BME280;15333;50.010;20.020;2023-04-02T00:19:18;97679.88;;;8.36;100.00
28008;BME280;15333;50.010;20.020;2023-04-02T00:22:26;97686.91;;;8.25;100.00
28008;BME280;15333;50.010;20.020;2023-04-02T00:25:32;97689.38;;;8.17;100.00
28008;BME280;15333;50.010;20.020;2023-04-02T00:28:34;97684.31;;;8.14;100.00
28008;BME280;15333;50.010;20.020;2023-04-02T00:31:37;97690.44;;;8.26;100.00
28008;BME280;15333;50.010;20.020;2023-04-02T00:34:40;97692.66;;;8.21;100.00
28008;BME280;15333;50.010;20.020;2023-04-02T00:37:42;97693.50;;;8.21;100.00
28008;BME280;15333;50.010;20.020;2023-04-02T00:40:44;97689.34;;;8.29;100.00
28008;BME280;15333;50.010;20.020;2023-04-02T00:43:47;97700.75;;;8.19;100.00
28008;BME280;15333;50.010;20.020;2023-04-02T00:46:51;97704.47;;;8.28;100.00
28008;BME280;15333;50.010;20.020;2023-04-02T00:50:31;97703.44;;;8.31;100.00
28008;BME280;15333;50.010;20.020;2023-04-02T00:53:34;97707.03;;;8.30;100.00
28008;BME280;15333;50.010;20.020;2023-04-02T00:56:38;97717.94;;;8.26;100.00
28008;BME280;15333;50.010;20.020;2023-04-02T01:00:00;97712.72;;;8.36;100.00
28008;BME280;15333;50.010;20.020;2023-04-02T01:06:15;97716.28;;;8.67;100.00
28008;BME280;15333;50.010;20.020;2023-04-02T01:13:27;97726.16;;;8.35;100.00
28008;BME280;15333;50.010;20.020;2023-04-02T01:16:19;97723.63;;;8.33;100.00
28008;BME280;15333;50.010;20.020;2023-04-02T01:23:17;97726.66;;;8.29;100.00
28008;BME280;15333;50.010;20.020;2023-04-02T01:26:58;97728.59;;;8.26;100.00
28008;BME280;15333;50.010;20.020;2023-04-02T01:30:01;97738.34;;;8.16;100.00
28008;BME280;15333;50.010;20.020;2023-04-02T01:33:04;97735.53;;;8.18;100.00
28008;BME280;15333;50.010;20.020;2023-04-02T01:36:19;97744.88;;;8.12;100.00
28008;BME280;15333;50.010;20.020;2023-04-02T01:43:07;97747.81;;;8.09;100.00
28008;BME280;15333;50.010;20.020;2023-04-02T01:46:32;97735.47;;;8.08;100.00
28008;BME280;15333;50.010;20.020;2023-04-02T01:49:33;97747.19;;;8.06;100.00
28008;BME280;15333;50.010;20.020;2023-04-02T01:52:42;97749.03;;;8.05;100.00
28008;BME280;15333;50.010;20.020;2023-04-02T01:55:49;97747.31;;;8.04;100.00
28008;BME280;15333;50.010;20.020;2023-04-02T01:58:51;97743.91;;;8.13;100.00
28008;BME280;15333;50.010;20.020;2023-04-02T02:02:06;97742.88;;;8.25;100.00
28008;BME280;15333;50.010;20.020;2023-04-02T02:05:13;97745.19;;;8.30;100.00
28008;BME280;15333;50.010;20.020;2023-04-02T02:08:31;97738.16;;;8.29;100.00
28008;BME280;15333;50.010;20.020;2023-04-02T02:11:33;97752.38;;;8.18;100.00
28008;BME280;15333;50.010;20.020;2023-04-02T02:14:36;97759.16;;;8.22;100.00
28008;BME280;15333;50.010;20.020;2023-04-02T02:17:37;97762.56;;;8.13;100.00
28008;BME280;15333;50.010;20.020;2023-04-02T02:20:38;97763.53;;;8.12;100.00
28008;BME280;15333;50.010;20.020;2023-04-02T02:23:40;97766.47;;;7.98;100.00
28008;BME280;15333;50.010;20.020;2023-04-02T02:26:43;97761.88;;;7.89;100.00
28008;BME280;15333;50.010;20.020;2023-04-02T02:29:45;97761.31;;;7.85;100.00
28008;BME280;15333;50.010;20.020;2023-04-02T02:33:02;97761.66;;;7.92;100.00
28008;BME280;15333;50.010;20.020;2023-04-02T02:39:24;97767.72;;;7.83;100.00
28008;BME280;15333;50.010;20.020;2023-04-02T02:45:34;97774.97;;;7.92;100.00
28008;BME280;15333;50.010;20.020;2023-04-02T02:48:38;97774.50;;;7.87;100.00
28008;BME280;15333;50.010;20.020;2023-04-02T02:51:56;97785.41;;;7.95;100.00
28008;BME280;15333;50.010;20.020;2023-04-02T02:55:07;97779.06;;;7.96;100.00
28008;BME280;15333;50.010;20.020;2023-04-02T02:58:27;97788.13;;;8.05;100.00
28008;BME280;15333;50.010;20.020;2023-04-02T03:02:01;97792.03;;;8.01;100.00
28008;BME280;15333;50.010;20.020;2023-04-02T03:05:04;97801.84;;;8.00;100.00
28008;BME280;15333;50.010;20.020;2023-04-02T03:08:18;97788.06;;;7.95;100.00
28008;BME280;15333;50.010;20.020;2023-04-02T03:14:53;97788.28;;;7.92;100.00
28008;BME280;15333;50.010;20.020;2023-04-02T03:24:26;97797.50;;;7.77;100.00
28008;BME280;15333;50.010;20.020;2023-04-02T03:27:33;97803.31;;;7.82;100.00
28008;BME280;15333;50.010;20.020;2023-04-02T03:30:41;97809.59;;;7.92;100.00
28008;BME280;15333;50.010;20.020;2023-04-02T03:33:50;97804.50;;;7.89;100.00
28008;BME280;15333;50.010;20.020;2023-04-02T03:40:20;97813.72;;;7.85;100.00
28008;BME280;15333;50.010;20.020;2023-04-02T03:43:25;97825.13;;;7.76;100.00
28008;BME280;15333;50.010;20.020;2023-04-02T03:46:43;97818.59;;;7.80;100.00
28008;BME280;15333;50.010;20.020;2023-04-02T03:52:53;97832.28;;;7.64;100.00
28008;BME280;15333;50.010;20.020;2023-04-02T03:55:55;97829.72;;;7.63;100.00
28008;BME280;15333;50.010;20.020;2023-04-02T03:59:23;97825.97;;;7.76;100.00
28008;BME280;15333;50.010;20.020;2023-04-02T04:02:37;97839.78;;;7.81;100.00
28008;BME280;15333;50.010;20.020;2023-04-02T04:05:48;97842.56;;;7.80;100.00
28008;BME280;15333;50.010;20.020;2023-04-02T04:12:17;97840.00;;;7.78;100.00
28008;BME280;15333;50.010;20.020;2023-04-02T04:18:33;97845.09;;;7.70;100.00
28008;BME280;15333;50.010;20.020;2023-04-02T04:21:41;97849.47;;;7.71;100.00
28008;BME280;15333;50.010;20.020;2023-04-02T04:24:54;97852.25;;;7.70;100.00
28008;BME280;15333;50.010;20.020;2023-04-02T04:28:15;97854.16;;;7.68;100.00
28008;BME280;15333;50.010;20.020;2023-04-02T04:31:30;97863.16;;;7.67;100.00
28008;BME280;15333;50.010;20.020;2023-04-02T04:34:39;97859.97;;;7.62;100.00
28008;BME280;15333;50.010;20.020;2023-04-02T04:37:48;97865.31;;;7.62;100.00
28008;BME280;15333;50.010;20.020;2023-04-02T04:40:56;97865.78;;;7.56;100.00
28008;BME280;15333;50.010;20.020;2023-04-02T04:47:27;97871.38;;;7.53;100.00
28008;BME280;15333;50.010;20.020;2023-04-02T04:50:34;97881.16;;;7.52;100.00
28008;BME280;15333;50.010;20.020;2023-04-02T04:53:45;97879.09;;;7.56;100.00
28008;BME280;15333;50.010;20.020;2023-04-02T04:56:52;97881.53;;;7.59;100.00
28008;BME280;15333;50.010;20.020;2023-04-02T05:00:05;97887.34;;;7.53;100.00
28008;BME280;15333;50.010;20.020;2023-04-02T05:06:31;97895.19;;;7.54;100.00
28008;BME280;15333;50.010;20.020;2023-04-02T05:09:52;97898.38;;;7.59;100.00
28008;BME280;15333;50.010;20.020;2023-04-02T05:13:04;97903.31;;;7.64;100.00
28008;BME280;15333;50.010;20.020;2023-04-02T05:16:44;97906.56;;;7.67;100.00
28008;BME280;15333;50.010;20.020;2023-04-02T05:19:58;97906.84;;;7.64;100.00
28008;BME280;15333;50.010;20.020;2023-04-02T05:26:39;97919.66;;;7.59;100.00
28008;BME280;15333;50.010;20.020;2023-04-02T05:29:46;97918.06;;;7.68;100.00
28008;BME280;15333;50.010;20.020;2023-04-02T05:32:57;97923.19;;;7.60;100.00
28008;BME280;15333;50.010;20.020;2023-04-02T05:36:03;97925.09;;;7.58;100.00
28008;BME280;15333;50.010;20.020;2023-04-02T05:39:09;97918.81;;;7.59;100.00
28008;BME280;15333;50.010;20.020;2023-04-02T05:42:22;97924.13;;;7.59;100.00
28008;BME280;15333;50.010;20.020;2023-04-02T05:45:34;97923.50;;;7.55;100.00
28008;BME280;15333;50.010;20.020;2023-04-02T05:48:39;97938.88;;;7.52;100.00
28008;BME280;15333;50.010;20.020;2023-04-02T05:51:48;97933.31;;;7.55;100.00
28008;BME280;15333;50.010;20.020;2023-04-02T05:54:58;97935.97;;;7.43;100.00
28008;BME280;15333;50.010;20.020;2023-04-02T05:58:16;97934.03;;;7.45;100.00
28008;BME280;15333;50.010;20.020;2023-04-02T06:04:35;97934.25;;;7.42;100.00
28008;BME280;15333;50.010;20.020;2023-04-02T06:07:45;97937.41;;;7.47;100.00
28008;BME280;15333;50.010;20.020;2023-04-02T06:11:16;97939.97;;;7.49;100.00
28008;BME280;15333;50.010;20.020;2023-04-02T06:14:16;97941.19;;;7.45;100.00
28008;BME280;15333;50.010;20.020;2023-04-02T06:17:19;97942.75;;;7.47;100.00
28008;BME280;15333;50.010;20.020;2023-04-02T06:20:20;97945.19;;;7.51;100.00
28008;BME280;15333;50.010;20.020;2023-04-02T06:23:36;97955.72;;;7.63;100.00
28008;BME280;15333;50.010;20.020;2023-04-02T06:26:42;97948.38;;;7.67;100.00
28008;BME280;15333;50.010;20.020;2023-04-02T06:29:51;97960.34;;;7.72;100.00
28008;BME280;15333;50.010;20.020;2023-04-02T06:32:55;97968.47;;;7.82;100.00
28008;BME280;15333;50.010;20.020;2023-04-02T06:35:58;97966.31;;;7.87;100.00
28008;BME280;15333;50.010;20.020;2023-04-02T06:39:07;97975.00;;;7.89;100.00
28008;BME280;15333;50.010;20.020;2023-04-02T06:42:16;97977.94;;;7.86;100.00
28008;BME280;15333;50.010;20.020;2023-04-02T06:45:39;97979.38;;;7.79;100.00
28008;BME280;15333;50.010;20.020;2023-04-02T06:52:24;97995.56;;;7.76;100.00
28008;BME280;15333;50.010;20.020;2023-04-02T06:58:39;97986.34;;;7.58;100.00
28008;BME280;15333;50.010;20.020;2023-04-02T07:04:48;97997.59;;;7.61;100.00
28008;BME280;15333;50.010;20.020;2023-04-02T07:07:50;98004.25;;;7.56;100.00
28008;BME280;15333;50.010;20.020;2023-04-02T07:10:51;98003.06;;;7.60;100.00
28008;BME280;15333;50.010;20.020;2023-04-02T07:13:52;97996.69;;;7.73;100.00
28008;BME280;15333;50.010;20.020;2023-04-02T07:16:54;97996.84;;;8.05;100.00
28008;BME280;15333;50.010;20.020;2023-04-02T07:19:55;97999.53;;;8.16;100.00
28008;BME280;15333;50.010;20.020;2023-04-02T07:22:57;98006.31;;;8.32;100.00
28008;BME280;15333;50.010;20.020;2023-04-02T07:25:58;98012.63;;;8.53;100.00
28008;BME280;15333;50.010;20.020;2023-04-02T07:28:59;98009.97;;;8.64;100.00
28008;BME280;15333;50.010;20.020;2023-04-02T07:32:00;98008.50;;;8.71;100.00
28008;BME280;15333;50.010;20.020;2023-04-02T07:35:01;98019.63;;;8.76;100.00
28008;BME280;15333;50.010;20.020;2023-04-02T07:38:03;98017.00;;;8.65;100.00
28008;BME280;15333;50.010;20.020;2023-04-02T07:41:04;98017.50;;;8.59;100.00
28008;BME280;15333;50.010;20.020;2023-04-02T07:44:06;98023.78;;;8.47;100.00
28008;BME280;15333;50.010;20.020;2023-04-02T07:47:06;98025.47;;;8.48;100.00
28008;BME280;15333;50.010;20.020;2023-04-02T07:50:10;98031.53;;;8.39;100.00
28008;BME280;15333;50.010;20.020;2023-04-02T07:53:32;98029.34;;;8.77;100.00
28008;BME280;15333;50.010;20.020;2023-04-02T07:56:33;98036.75;;;8.74;100.00
28008;BME280;15333;50.010;20.020;2023-04-02T07:59:34;98036.88;;;8.72;100.00
28008;BME280;15333;50.010;20.020;2023-04-02T08:02:35;98042.81;;;8.64;100.00
28008;BME280;15333;50.010;20.020;2023-04-02T08:05:36;98049.59;;;8.46;100.00
28008;BME280;15333;50.010;20.020;2023-04-02T08:08:37;98048.00;;;8.33;100.00
28008;BME280;15333;50.010;20.020;2023-04-02T08:11:38;98052.81;;;8.16;100.00
28008;BME280;15333;50.010;20.020;2023-04-02T08:14:41;98049.66;;;8.11;100.00
28008;BME280;15333;50.010;20.020;2023-04-02T08:17:42;98060.09;;;8.14;100.00
28008;BME280;15333;50.010;20.020;2023-04-02T08:20:43;98062.25;;;8.09;100.00
28008;BME280;15333;50.010;20.020;2023-04-02T08:23:44;98072.28;;;8.06;100.00
28008;BME280;15333;50.010;20.020;2023-04-02T08:26:49;98078.94;;;8.00;100.00
28008;BME280;15333;50.010;20.020;2023-04-02T08:29:51;98077.72;;;7.93;100.00
28008;BME280;15333;50.010;20.020;2023-04-02T08:32:52;98081.56;;;7.89;100.00
28008;BME280;15333;50.010;20.020;2023-04-02T08:35:53;98083.53;;;7.87;100.00
28008;BME280;15333;50.010;20.020;2023-04-02T08:38:54;98088.56;;;7.79;100.00
28008;BME280;15333;50.010;20.020;2023-04-02T08:41:57;98099.50;;;7.87;100.00
28008;BME280;15333;50.010;20.020;2023-04-02T08:45:49;98109.63;;;7.82;100.00
28008;BME280;15333;50.010;20.020;2023-04-02T08:48:31;98111.31;;;7.72;100.00
28008;BME280;15333;50.010;20.020;2023-04-02T08:51:35;98129.22;;;7.70;100.00
28008;BME280;15333;50.010;20.020;2023-04-02T08:54:36;98137.16;;;6.86;100.00
28008;BME280;15333;50.010;20.020;2023-04-02T08:57:47;98152.69;;;6.28;100.00
28008;BME280;15333;50.010;20.020;2023-04-02T09:00:54;98171.66;;;5.70;100.00
28008;BME280;15333;50.010;20.020;2023-04-02T09:03:57;98165.84;;;5.51;100.00
28008;BME280;15333;50.010;20.020;2023-04-02T09:06:58;98169.81;;;5.58;100.00
28008;BME280;15333;50.010;20.020;2023-04-02T09:10:00;98197.84;;;5.35;100.00
28008;BME280;15333;50.010;20.020;2023-04-02T09:13:02;98185.28;;;5.25;100.00
28008;BME280;15333;50.010;20.020;2023-04-02T09:16:09;98183.34;;;5.27;100.00
28008;BME280;15333;50.010;20.020;2023-04-02T09:19:25;98191.44;;;5.25;100.00
28008;BME280;15333;50.010;20.020;2023-04-02T09:22:32;98208.19;;;5.40;100.00
28008;BME280;15333;50.010;20.020;2023-04-02T09:25:34;98207.00;;;5.44;100.00
28008;BME280;15333;50.010;20.020;2023-04-02T09:28:36;98206.06;;;5.45;100.00
28008;BME280;15333;50.010;20.020;2023-04-02T09:31:46;98221.03;;;5.46;100.00
28008;BME280;15333;50.010;20.020;2023-04-02T09:35:04;98221.97;;;5.59;100.00
28008;BME280;15333;50.010;20.020;2023-04-02T09:38:10;98228.41;;;5.41;100.00
28008;BME280;15333;50.010;20.020;2023-04-02T09:41:18;98237.34;;;5.40;100.00
28008;BME280;15333;50.010;20.020;2023-04-02T09:44:25;98251.97;;;5.33;100.00
28008;BME280;15333;50.010;20.020;2023-04-02T09:47:26;98258.94;;;5.34;100.00
28008;BME280;15333;50.010;20.020;2023-04-02T09:50:32;98261.13;;;5.27;100.00
28008;BME280;15333;50.010;20.020;2023-04-02T09:53:39;98270.25;;;5.23;100.00
28008;BME280;15333;50.010;20.020;2023-04-02T09:56:57;98278.47;;;5.04;100.00
28008;BME280;15333;50.010;20.020;2023-04-02T10:03:23;98275.47;;;4.96;100.00
28008;BME280;15333;50.010;20.020;2023-04-02T10:06:27;98285.00;;;4.99;100.00
28008;BME280;15333;50.010;20.020;2023-04-02T10:09:58;98300.28;;;4.95;100.00
28008;BME280;15333;50.010;20.020;2023-04-02T10:13:24;98299.09;;;4.85;100.00
28008;BME280;15333;50.010;20.020;2023-04-02T10:16:35;98303.75;;;4.82;100.00
28008;BME280;15333;50.010;20.020;2023-04-02T10:19:42;98308.38;;;4.78;100.00
28008;BME280;15333;50.010;20.020;2023-04-02T10:22:46;98324.66;;;4.72;100.00
28008;BME280;15333;50.010;20.020;2023-04-02T10:32:23;98336.59;;;4.79;100.00
28008;BME280;15333;50.010;20.020;2023-04-02T10:35:55;98344.53;;;4.79;100.00
28008;BME280;15333;50.010;20.020;2023-04-02T10:39:05;98353.84;;;4.86;100.00
28008;BME280;15333;50.010;20.020;2023-04-02T10:42:31;98359.50;;;4.80;100.00
28008;BME280;15333;50.010;20.020;2023-04-02T10:53:00;98375.78;;;4.74;100.00
28008;BME280;15333;50.010;20.020;2023-04-02T10:56:10;98378.03;;;4.66;100.00
28008;BME280;15333;50.010;20.020;2023-04-02T10:59:32;98387.06;;;4.62;100.00
28008;BME280;15333;50.010;20.020;2023-04-02T11:05:59;98396.31;;;4.55;100.00
28008;BME280;15333;50.010;20.020;2023-04-02T11:09:05;98399.38;;;4.63;100.00
28008;BME280;15333;50.010;20.020;2023-04-02T11:12:54;98408.13;;;4.65;100.00
28008;BME280;15333;50.010;20.020;2023-04-02T11:15:45;98412.69;;;4.77;100.00
28008;BME280;15333;50.010;20.020;2023-04-02T11:22:20;98420.28;;;5.13;100.00
28008;BME280;15333;50.010;20.020;2023-04-02T11:25:22;98423.59;;;5.02;100.00
28008;BME280;15333;50.010;20.020;2023-04-02T11:28:27;98426.03;;;5.05;100.00
28008;BME280;15333;50.010;20.020;2023-04-02T11:31:29;98424.47;;;4.87;100.00
28008;BME280;15333;50.010;20.020;2023-04-02T11:37:49;98438.53;;;4.73;100.00
28008;BME280;15333;50.010;20.020;2023-04-02T11:40:55;98451.09;;;4.70;100.00
28008;BME280;15333;50.010;20.020;2023-04-02T11:44:00;98450.34;;;4.68;100.00
28008;BME280;15333;50.010;20.020;2023-04-02T11:47:28;98461.75;;;4.39;100.00
28008;BME280;15333;50.010;20.020;2023-04-02T11:53:33;98468.81;;;4.22;100.00
28008;BME280;15333;50.010;20.020;2023-04-02T11:56:46;98473.25;;;4.22;100.00
28008;BME280;15333;50.010;20.020;2023-04-02T12:00:14;98474.81;;;4.10;100.00
28008;BME280;15333;50.010;20.020;2023-04-02T12:09:50;98486.84;;;4.16;100.00
28008;BME280;15333;50.010;20.020;2023-04-02T12:12:54;98485.22;;;4.13;100.00
28008;BME280;15333;50.010;20.020;2023-04-02T12:15:56;98479.50;;;4.21;100.00
28008;BME280;15333;50.010;20.020;2023-04-02T12:18:58;98478.72;;;4.34;100.00
28008;BME280;15333;50.010;20.020;2023-04-02T12:22:00;98489.84;;;4.57;100.00
28008;BME280;15333;50.010;20.020;2023-04-02T12:28:25;98487.13;;;4.58;100.00
28008;BME280;15333;50.010;20.020;2023-04-02T12:31:30;98497.03;;;4.55;100.00
28008;BME280;15333;50.010;20.020;2023-04-02T12:34:33;98492.50;;;4.72;100.00
28008;BME280;15333;50.010;20.020;2023-04-02T12:37:34;98498.19;;;4.96;100.00
28008;BME280;15333;50.010;20.020;2023-04-02T12:40:35;98493.91;;;4.94;100.00
28008;BME280;15333;50.010;20.020;2023-04-02T12:43:35;98500.44;;;4.88;100.00
28008;BME280;15333;50.010;20.020;2023-04-02T12:46:38;98513.50;;;4.91;100.00
28008;BME280;15333;50.010;20.020;2023-04-02T12:49:40;98504.53;;;4.78;100.00
28008;BME280;15333;50.010;20.020;2023-04-02T12:52:48;98493.44;;;4.56;100.00
28008;BME280;15333;50.010;20.020;2023-04-02T12:55:50;98499.84;;;4.52;100.00
28008;BME280;15333;50.010;20.020;2023-04-02T12:58:53;98501.31;;;4.57;100.00
28008;BME280;15333;50.010;20.020;2023-04-02T13:01:57;98514.47;;;4.59;100.00
28008;BME280;15333;50.010;20.020;2023-04-02T13:05:00;98524.38;;;4.55;100.00
28008;BME280;15333;50.010;20.020;2023-04-02T13:08:03;98533.97;;;4.58;100.00
28008;BME280;15333;50.010;20.020;2023-04-02T13:11:05;98533.72;;;4.47;100.00
28008;BME280;15333;50.010;20.020;2023-04-02T13:14:17;98539.88;;;4.47;100.00
28008;BME280;15333;50.010;20.020;2023-04-02T13:20:41;98535.84;;;4.56;100.00
28008;BME280;15333;50.010;20.020;2023-04-02T13:23:43;98543.34;;;4.48;100.00
28008;BME280;15333;50.010;20.020;2023-04-02T13:26:46;98538.38;;;4.42;100.00
28008;BME280;15333;50.010;20.020;2023-04-02T13:29:49;98543.59;;;4.43;100.00
28008;BME280;15333;50.010;20.020;2023-04-02T13:32:50;98546.19;;;4.45;100.00
28008;BME280;15333;50.010;20.020;2023-04-02T13:35:51;98551.41;;;4.46;100.00
28008;BME280;15333;50.010;20.020;2023-04-02T13:38:52;98552.59;;;4.56;100.00
28008;BME280;15333;50.010;20.020;2023-04-02T13:41:58;98554.59;;;4.68;100.00
28008;BME280;15333;50.010;20.020;2023-04-02T13:44:59;98553.97;;;4.79;100.00
28008;BME280;15333;50.010;20.020;2023-04-02T13:48:01;98555.69;;;4.80;100.00
28008;BME280;15333;50.010;20.020;2023-04-02T13:51:02;98559.44;;;4.76;100.00
28008;BME280;15333;50.010;20.020;2023-04-02T13:54:25;98556.38;;;4.68;100.00
28008;BME280;15333;50.010;20.020;2023-04-02T13:57:29;98553.31;;;4.76;100.00
28008;BME280;15333;50.010;20.020;2023-04-02T14:00:31;98566.97;;;4.68;100.00
28008;BME280;15333;50.010;20.020;2023-04-02T14:03:32;98564.06;;;4.72;100.00
28008;BME280;15333;50.010;20.020;2023-04-02T14:06:50;98570.22;;;4.73;100.00
28008;BME280;15333;50.010;20.020;2023-04-02T14:13:47;98572.44;;;4.65;100.00
28008;BME280;15333;50.010;20.020;2023-04-02T14:20:19;98577.22;;;4.58;100.00
28008;BME280;15333;50.010;20.020;2023-04-02T14:23:26;98598.06;;;4.49;100.00
28008;BME280;15333;50.010;20.020;2023-04-02T14:33:45;98597.72;;;4.55;100.00
28008;BME280;15333;50.010;20.020;2023-04-02T14:40:24;98620.03;;;4.51;100.00
28008;BME280;15333;50.010;20.020;2023-04-02T14:43:31;98613.50;;;4.41;100.00
28008;BME280;15333;50.010;20.020;2023-04-02T14:46:37;98619.66;;;4.41;100.00
28008;BME280;15333;50.010;20.020;2023-04-02T14:49:41;98619.78;;;4.22;100.00
28008;BME280;15333;50.010;20.020;2023-04-02T14:52:46;98627.00;;;4.36;100.00
28008;BME280;15333;50.010;20.020;2023-04-02T14:55:51;98628.00;;;4.33;100.00
28008;BME280;15333;50.010;20.020;2023-04-02T15:02:29;98650.66;;;4.23;100.00
28008;BME280;15333;50.010;20.020;2023-04-02T15:08:46;98635.75;;;4.21;100.00
28008;BME280;15333;50.010;20.020;2023-04-02T15:11:59;98649.56;;;4.10;100.00
28008;BME280;15333;50.010;20.020;2023-04-02T15:15:32;98644.59;;;4.04;100.00
28008;BME280;15333;50.010;20.020;2023-04-02T15:18:36;98651.03;;;3.99;100.00
28008;BME280;15333;50.010;20.020;2023-04-02T15:21:48;98657.50;;;3.93;100.00
28008;BME280;15333;50.010;20.020;2023-04-02T15:25:21;98664.78;;;3.89;100.00
28008;BME280;15333;50.010;20.020;2023-04-02T15:28:29;98671.22;;;3.84;100.00
28008;BME280;15333;50.010;20.020;2023-04-02T15:31:34;98676.25;;;3.71;100.00
28008;BME280;15333;50.010;20.020;2023-04-02T15:34:45;98686.22;;;3.66;100.00
28008;BME280;15333;50.010;20.020;2023-04-02T15:44:16;98689.13;;;3.62;100.00
28008;BME280;15333;50.010;20.020;2023-04-02T15:47:33;98690.81;;;3.63;100.00
28008;BME280;15333;50.010;20.020;2023-04-02T16:10:42;98725.47;;;3.39;100.00
28008;BME280;15333;50.010;20.020;2023-04-02T16:13:44;98729.84;;;3.40;100.00
28008;BME280;15333;50.010;20.020;2023-04-02T16:16:49;98732.47;;;3.40;100.00
28008;BME280;15333;50.010;20.020;2023-04-02T16:20:17;98743.75;;;3.44;100.00
28008;BME280;15333;50.010;20.020;2023-04-02T16:23:37;98746.16;;;3.48;100.00
28008;BME280;15333;50.010;20.020;2023-04-02T16:26:56;98743.53;;;3.48;100.00
28008;BME280;15333;50.010;20.020;2023-04-02T16:39:41;98768.84;;;3.35;100.00
28008;BME280;15333;50.010;20.020;2023-04-02T16:43:18;98766.38;;;3.32;100.00
28008;BME280;15333;50.010;20.020;2023-04-02T16:50:08;98778.66;;;3.33;100.00
28008;BME280;15333;50.010;20.020;2023-04-02T17:00:22;98798.81;;;3.36;100.00
28008;BME280;15333;50.010;20.020;2023-04-02T17:03:43;98798.09;;;3.32;100.00
28008;BME280;15333;50.010;20.020;2023-04-02T17:06:57;98799.03;;;3.31;100.00
28008;BME280;15333;50.010;20.020;2023-04-02T17:10:17;98798.75;;;3.37;100.00
28008;BME280;15333;50.010;20.020;2023-04-02T17:16:43;98825.47;;;3.31;100.00
28008;BME280;15333;50.010;20.020;2023-04-02T17:19:44;98817.53;;;3.31;100.00
28008;BME280;15333;50.010;20.020;2023-04-02T17:22:47;98817.66;;;3.28;100.00
28008;BME280;15333;50.010;20.020;2023-04-02T17:26:01;98836.97;;;3.30;100.00
28008;BME280;15333;50.010;20.020;2023-04-02T17:29:07;98832.63;;;3.29;100.00
28008;BME280;15333;50.010;20.020;2023-04-02T17:32:25;98836.34;;;3.25;100.00
28008;BME280;15333;50.010;20.020;2023-04-02T17:39:08;98839.63;;;3.30;100.00
28008;BME280;15333;50.010;20.020;2023-04-02T17:42:23;98839.97;;;3.23;100.00
28008;BME280;15333;50.010;20.020;2023-04-02T17:49:01;98850.72;;;3.20;100.00
28008;BME280;15333;50.010;20.020;2023-04-02T17:55:46;98861.53;;;3.13;100.00
28008;BME280;15333;50.010;20.020;2023-04-02T18:02:26;98873.13;;;3.11;100.00
28008;BME280;15333;50.010;20.020;2023-04-02T18:12:49;98881.44;;;3.02;100.00
28008;BME280;15333;50.010;20.020;2023-04-02T18:19:17;98891.63;;;2.91;100.00
28008;BME280;15333;50.010;20.020;2023-04-02T18:22:42;98895.25;;;2.88;100.00
28008;BME280;15333;50.010;20.020;2023-04-02T18:26:13;98897.16;;;2.85;100.00
28008;BME280;15333;50.010;20.020;2023-04-02T18:29:42;98908.75;;;2.82;100.00
28008;BME280;15333;50.010;20.020;2023-04-02T18:33:21;98908.59;;;2.85;100.00
28008;BME280;15333;50.010;20.020;2023-04-02T18:49:38;98917.28;;;2.89;100.00
28008;BME280;15333;50.010;20.020;2023-04-02T18:52:40;98920.78;;;2.89;100.00
28008;BME280;15333;50.010;20.020;2023-04-02T18:55:47;98927.03;;;2.87;100.00
28008;BME280;15333;50.010;20.020;2023-04-02T18:58:55;98927.84;;;2.89;100.00
28008;BME280;15333;50.010;20.020;2023-04-02T19:02:00;98930.88;;;3.00;100.00
28008;BME280;15333;50.010;20.020;2023-04-02T19:08:47;98934.03;;;2.88;100.00
28008;BME280;15333;50.010;20.020;2023-04-02T19:11:50;98928.66;;;2.91;100.00
28008;BME280;15333;50.010;20.020;2023-04-02T19:14:52;98932.97;;;2.92;100.00
28008;BME280;15333;50.010;20.020;2023-04-02T19:21:16;98943.63;;;2.90;100.00
28008;BME280;15333;50.010;20.020;2023-04-02T19:34:07;98948.19;;;2.87;100.00
28008;BME280;15333;50.010;20.020;2023-04-02T19:37:28;98942.78;;;2.90;100.00
28008;BME280;15333;50.010;20.020;2023-04-02T19:40:50;98948.06;;;2.90;100.00
28008;BME280;15333;50.010;20.020;2023-04-02T19:43:54;98954.31;;;2.87;100.00
28008;BME280;15333;50.010;20.020;2023-04-02T19:46:56;98956.06;;;2.88;100.00
28008;BME280;15333;50.010;20.020;2023-04-02T19:49:57;98953.47;;;2.87;100.00
28008;BME280;15333;50.010;20.020;2023-04-02T19:52:58;98959.66;;;2.86;100.00
28008;BME280;15333;50.010;20.020;2023-04-02T19:55:59;98957.03;;;2.86;100.00
28008;BME280;15333;50.010;20.020;2023-04-02T19:59:00;98958.75;;;2.87;100.00
28008;BME280;15333;50.010;20.020;2023-04-02T20:02:02;98958.91;;;2.84;100.00
28008;BME280;15333;50.010;20.020;2023-04-02T20:05:07;98962.47;;;2.83;100.00
28008;BME280;15333;50.010;20.020;2023-04-02T20:08:09;98953.63;;;2.84;100.00
28008;BME280;15333;50.010;20.020;2023-04-02T20:11:10;98972.88;;;2.86;100.00
28008;BME280;15333;50.010;20.020;2023-04-02T20:14:11;98962.56;;;2.80;100.00
28008;BME280;15333;50.010;20.020;2023-04-02T20:17:12;98972.03;;;2.85;100.00
28008;BME280;15333;50.010;20.020;2023-04-02T20:20:13;98973.09;;;2.81;100.00
28008;BME280;15333;50.010;20.020;2023-04-02T20:23:16;98959.94;;;2.80;100.00
28008;BME280;15333;50.010;20.020;2023-04-02T20:26:17;98969.69;;;2.78;100.00
28008;BME280;15333;50.010;20.020;2023-04-02T20:29:18;98992.56;;;2.79;100.00